createdAt,value
2023-03-29T00:00:14.533Z,100923.94
2023-03-29T00:03:19.831Z,100926.75
2023-03-29T00:06:22.236Z,100927.53
2023-03-29T00:09:26.792Z,100933.25
2023-03-29T00:12:29.205Z,100927.63
2023-03-29T00:15:31.923Z,100941.22
2023-03-29T00:18:34.779Z,100928.00
2023-03-29T00:21:37.102Z,100937.81
2023-03-29T00:24:39.552Z,100935.13
2023-03-29T00:27:41.890Z,100944.56
2023-03-29T00:30:44.324Z,100929.91
2023-03-29T00:33:47.154Z,100930.25
2023-03-29T00:36:53.121Z,100921.31
2023-03-29T00:39:56.309Z,100934.19
2023-03-29T00:42:58.746Z,100925.59
2023-03-29T00:46:01.114Z,100921.31
2023-03-29T00:49:12.753Z,100936.53
2023-03-29T00:52:16.386Z,100930.69
2023-03-29T00:55:22.894Z,100928.56
2023-03-29T00:58:43.215Z,100928.22
2023-03-29T01:02:07.308Z,100922.59
2023-03-29T01:05:14.494Z,100911.59
2023-03-29T01:08:20.629Z,100913.25
2023-03-29T01:11:28.415Z,100918.31
2023-03-29T01:14:35.592Z,100917.03
2023-03-29T01:17:40.641Z,100907.59
2023-03-29T01:21:05.063Z,100914.03
2023-03-29T01:24:12.059Z,100911.59
2023-03-29T01:27:33.742Z,100879.81
2023-03-29T01:30:44.066Z,100908.16
2023-03-29T01:33:50.024Z,100913.59
2023-03-29T01:37:00.441Z,100912.63
2023-03-29T01:40:05.216Z,100900.78
2023-03-29T01:43:27.892Z,100885.75
2023-03-29T01:46:46.233Z,100917.22
2023-03-29T01:50:18.837Z,100926.63
2023-03-29T01:53:29.156Z,100928.59
2023-03-29T01:56:34.551Z,100924.28
2023-03-29T01:59:40.229Z,100914.09
2023-03-29T02:02:45.437Z,100918.22
2023-03-29T02:05:47.880Z,100910.28
2023-03-29T02:08:51.315Z,100925.44
2023-03-29T02:11:54.036Z,100924.63
2023-03-29T02:14:58.869Z,100920.63
2023-03-29T02:18:01.745Z,100924.75
2023-03-29T02:21:04.942Z,100912.72
2023-03-29T02:24:10.047Z,100910.63
2023-03-29T02:27:14.332Z,100900.25
2023-03-29T02:30:18.426Z,100903.66
2023-03-29T02:33:53.961Z,100910.28
2023-03-29T02:37:03.207Z,100919.84
2023-03-29T02:40:08.123Z,100908.81
2023-03-29T02:43:13.187Z,100920.81
2023-03-29T02:46:16.647Z,100915.22
2023-03-29T02:49:19.211Z,100914.66
2023-03-29T02:52:25.906Z,100918.69
2023-03-29T02:55:34.992Z,100927.44
2023-03-29T02:58:37.458Z,100925.25
2023-03-29T03:01:42.813Z,100925.75
2023-03-29T03:04:45.298Z,100935.47
2023-03-29T03:07:47.781Z,100940.69
2023-03-29T03:10:50.132Z,100933.13
2023-03-29T03:13:54.549Z,100940.88
2023-03-29T03:16:57.881Z,100944.03
2023-03-29T03:20:00.742Z,100937.72
2023-03-29T03:23:03.549Z,100938.72
2023-03-29T03:26:06.468Z,100943.50
2023-03-29T03:29:09.986Z,100938.31
2023-03-29T03:32:34.631Z,100940.94
2023-03-29T03:35:38.671Z,100942.56
2023-03-29T03:38:44.120Z,100952.31
2023-03-29T03:41:47.007Z,100934.81
2023-03-29T03:44:49.913Z,100942.41
2023-03-29T03:48:04.314Z,100945.56
2023-03-29T03:51:36.152Z,100940.31
2023-03-29T03:54:39.074Z,100956.19
2023-03-29T03:58:13.986Z,100949.25
2023-03-29T04:01:17.175Z,100958.63
2023-03-29T04:04:29.527Z,100954.94
2023-03-29T04:07:54.350Z,100948.16
2023-03-29T04:11:07.741Z,100958.81
2023-03-29T04:14:13.069Z,100963.59
2023-03-29T04:17:41.597Z,100955.25
2023-03-29T04:21:06.892Z,100956.47
2023-03-29T04:24:10.974Z,100948.34
2023-03-29T04:27:16.379Z,100946.53
2023-03-29T04:30:18.844Z,100947.00
2023-03-29T04:33:46.899Z,100948.81
2023-03-29T04:36:53.121Z,100960.19
2023-03-29T04:40:02.611Z,100952.59
2023-03-29T04:43:12.411Z,100964.53
2023-03-29T04:46:26.791Z,100966.47
2023-03-29T04:49:48.139Z,100954.44
2023-03-29T04:53:00.409Z,100969.28
2023-03-29T04:56:04.932Z,100968.38
2023-03-29T04:59:27.214Z,100954.78
2023-03-29T05:02:32.491Z,100941.00
2023-03-29T05:05:35.636Z,100968.59
2023-03-29T05:08:39.616Z,100981.00
2023-03-29T05:12:03.734Z,100964.56
2023-03-29T05:15:14.928Z,100957.97
2023-03-29T05:18:17.929Z,100967.84
2023-03-29T05:21:22.048Z,100975.13
2023-03-29T05:24:24.483Z,100973.63
2023-03-29T05:27:35.156Z,100970.00
2023-03-29T05:30:44.742Z,100977.75
2023-03-29T05:33:57.474Z,100971.81
2023-03-29T05:37:01.616Z,100966.88
2023-03-29T05:40:10.973Z,100990.78
2023-03-29T05:43:41.164Z,100968.50
2023-03-29T05:46:43.886Z,100966.81
2023-03-29T05:49:51.613Z,100968.78
2023-03-29T05:52:58.408Z,100977.44
2023-03-29T05:56:00.886Z,100989.88
2023-03-29T05:59:05.352Z,100988.25
2023-03-29T06:02:08.161Z,100985.25
2023-03-29T06:05:14.682Z,100984.16
2023-03-29T06:08:37.712Z,100986.06
2023-03-29T06:12:04.068Z,100993.38
2023-03-29T06:15:07.025Z,100989.75
2023-03-29T06:18:33.256Z,100997.03
2023-03-29T06:21:35.772Z,100990.25
2023-03-29T06:24:38.741Z,100992.19
2023-03-29T06:27:47.988Z,101002.66
2023-03-29T06:30:54.303Z,100992.25
2023-03-29T06:33:58.449Z,100994.72
2023-03-29T06:37:21.698Z,100979.94
2023-03-29T06:40:31.114Z,100998.22
2023-03-29T06:43:34.914Z,101002.09
2023-03-29T06:46:42.534Z,101004.56
2023-03-29T06:49:45.101Z,100993.72
2023-03-29T06:53:11.962Z,101011.47
2023-03-29T06:56:16.144Z,101004.88
2023-03-29T06:59:21.060Z,100993.63
2023-03-29T07:02:49.661Z,101000.19
2023-03-29T07:05:53.088Z,101006.44
2023-03-29T07:08:59.831Z,101004.03
2023-03-29T07:12:16.821Z,101014.38
2023-03-29T07:15:24.368Z,101015.69
2023-03-29T07:18:52.093Z,101033.94
2023-03-29T07:22:16.536Z,101022.81
2023-03-29T07:25:25.500Z,100997.28
2023-03-29T07:28:28.168Z,101022.31
2023-03-29T07:31:30.784Z,101018.03
2023-03-29T07:34:50.286Z,101034.88
2023-03-29T07:38:08.584Z,101025.66
2023-03-29T07:41:13.665Z,101025.34
2023-03-29T07:44:37.536Z,101040.84
2023-03-29T07:47:41.225Z,101034.09
2023-03-29T07:50:44.241Z,101039.66
2023-03-29T07:53:46.712Z,101041.78
2023-03-29T07:57:08.246Z,101035.03
2023-03-29T08:00:16.704Z,101027.28
2023-03-29T08:03:29.410Z,101025.03
2023-03-29T08:06:31.891Z,101041.63
2023-03-29T08:09:34.296Z,101032.91
2023-03-29T08:12:37.765Z,101009.00
2023-03-29T08:15:42.213Z,101028.13
2023-03-29T08:18:54.104Z,101022.38
2023-03-29T08:21:59.221Z,101031.13
2023-03-29T08:25:05.975Z,101019.56
2023-03-29T08:28:13.346Z,101022.56
2023-03-29T08:31:21.048Z,101013.47
2023-03-29T08:34:23.852Z,101024.78
2023-03-29T08:37:44.714Z,101014.50
2023-03-29T08:40:49.778Z,101019.34
2023-03-29T08:44:08.002Z,101011.78
2023-03-29T08:47:46.195Z,101018.56
2023-03-29T08:50:55.222Z,101015.59
2023-03-29T08:54:12.753Z,101011.22
2023-03-29T08:57:46.599Z,100998.97
2023-03-29T09:00:56.877Z,100998.50
2023-03-29T09:04:39.030Z,100994.78
2023-03-29T09:07:56.177Z,100983.91
2023-03-29T09:11:26.774Z,100986.31
2023-03-29T09:14:36.805Z,100978.88
2023-03-29T09:18:03.430Z,100974.44
2023-03-29T09:21:31.299Z,100965.31
2023-03-29T09:24:54.215Z,100967.47
2023-03-29T09:28:14.970Z,100962.59
2023-03-29T09:31:32.797Z,100968.31
2023-03-29T09:34:46.116Z,100954.94
2023-03-29T09:37:55.729Z,100964.22
2023-03-29T09:41:09.104Z,100944.81
2023-03-29T09:44:29.821Z,100934.72
2023-03-29T09:47:41.905Z,100939.69
2023-03-29T09:50:48.655Z,100944.03
2023-03-29T09:53:51.083Z,100942.75
2023-03-29T09:57:13.652Z,100942.47
2023-03-29T10:00:17.091Z,100941.53
2023-03-29T10:03:21.200Z,100937.44
2023-03-29T10:06:31.435Z,100938.16
2023-03-29T10:09:36.120Z,100928.91
2023-03-29T10:12:52.046Z,100926.59
2023-03-29T10:16:24.330Z,100922.97
2023-03-29T10:19:37.517Z,100926.34
2023-03-29T10:22:41.274Z,100905.66
2023-03-29T10:25:44.552Z,100911.19
2023-03-29T10:28:47.097Z,100910.38
2023-03-29T10:31:50.178Z,100902.50
2023-03-29T10:34:53.794Z,100913.41
2023-03-29T10:37:58.460Z,100907.22
2023-03-29T10:41:08.068Z,100909.22
2023-03-29T10:44:50.125Z,100894.03
2023-03-29T10:47:55.912Z,100887.56
2023-03-29T10:51:04.333Z,100896.94
2023-03-29T10:54:09.704Z,100893.41
2023-03-29T10:57:51.162Z,100879.25
2023-03-29T11:00:57.762Z,100874.44
2023-03-29T11:04:12.335Z,100886.50
2023-03-29T11:07:36.189Z,100885.84
2023-03-29T11:10:59.920Z,100866.28
2023-03-29T11:14:21.979Z,100872.19
2023-03-29T11:18:03.815Z,100860.19
2023-03-29T11:21:26.587Z,100860.34
2023-03-29T11:24:54.212Z,100844.09
2023-03-29T11:28:24.006Z,100861.50
2023-03-29T11:31:44.515Z,100857.59
2023-03-29T11:35:00.251Z,100851.22
2023-03-29T11:38:12.213Z,100848.91
2023-03-29T11:41:21.249Z,100840.31
2023-03-29T11:44:28.196Z,100836.31
2023-03-29T11:47:35.923Z,100833.69
2023-03-29T11:50:46.618Z,100837.34
2023-03-29T11:53:59.108Z,100833.75
2023-03-29T11:57:06.009Z,100832.97
2023-03-29T12:00:29.820Z,100804.50
2023-03-29T12:03:46.697Z,100816.22
2023-03-29T12:07:12.780Z,100816.31
2023-03-29T12:10:21.118Z,100823.59
2023-03-29T12:18:51.792Z,100780.69
2023-03-29T12:21:56.254Z,100779.69
2023-03-29T12:25:00.629Z,100787.69
2023-03-29T12:28:24.113Z,100784.59
2023-03-29T12:31:29.465Z,100809.84
2023-03-29T12:34:56.085Z,100796.59
2023-03-29T12:38:23.156Z,100770.97
2023-03-29T12:41:49.227Z,100754.19
2023-03-29T12:45:18.288Z,100761.00
2023-03-29T12:48:25.460Z,100765.41
2023-03-29T12:51:32.637Z,100779.53
2023-03-29T12:54:35.026Z,100763.19
2023-03-29T12:57:41.358Z,100770.34
2023-03-29T13:00:45.085Z,100769.06
2023-03-29T13:03:49.853Z,100756.84
2023-03-29T13:07:02.832Z,100763.97
2023-03-29T13:10:09.866Z,100775.59
2023-03-29T13:13:21.702Z,100771.91
2023-03-29T13:16:33.702Z,100781.31
2023-03-29T13:19:42.215Z,100760.84
2023-03-29T13:23:15.629Z,100761.53
2023-03-29T13:26:42.806Z,100768.47
2023-03-29T13:29:54.915Z,100751.78
2023-03-29T13:33:08.760Z,100745.31
2023-03-29T13:36:40.321Z,100742.50
2023-03-29T13:39:50.693Z,100728.56
2023-03-29T13:43:25.248Z,100737.50
2023-03-29T13:46:37.435Z,100735.81
2023-03-29T13:49:43.561Z,100729.19
2023-03-29T13:53:13.841Z,100742.25
2023-03-29T13:56:19.815Z,100724.28
2023-03-29T13:59:32.278Z,100727.69
2023-03-29T14:02:38.383Z,100726.09
2023-03-29T14:05:42.802Z,100711.31
2023-03-29T14:08:45.323Z,100711.72
2023-03-29T14:11:47.829Z,100720.44
2023-03-29T14:14:58.956Z,100711.97
2023-03-29T14:18:02.252Z,100703.28
2023-03-29T14:21:05.146Z,100709.19
2023-03-29T14:24:12.626Z,100703.47
2023-03-29T14:27:16.393Z,100685.28
2023-03-29T14:30:21.857Z,100696.66
2023-03-29T14:33:27.585Z,100704.38
2023-03-29T14:36:32.540Z,100694.50
2023-03-29T14:39:35.369Z,100701.06
2023-03-29T14:42:37.824Z,100697.84
2023-03-29T14:45:40.425Z,100698.47
2023-03-29T14:48:43.442Z,100690.03
2023-03-29T14:51:46.758Z,100688.38
2023-03-29T14:54:52.887Z,100691.88
2023-03-29T14:57:55.612Z,100699.84
2023-03-29T15:00:58.528Z,100711.34
2023-03-29T15:04:09.230Z,100701.47
2023-03-29T15:07:11.703Z,100693.41
2023-03-29T15:10:21.039Z,100696.44
2023-03-29T15:13:25.126Z,100686.38
2023-03-29T15:16:30.538Z,100690.31
2023-03-29T15:19:33.343Z,100682.31
2023-03-29T15:22:36.063Z,100688.63
2023-03-29T15:25:50.298Z,100685.97
2023-03-29T15:29:08.285Z,100672.59
2023-03-29T15:32:19.955Z,100660.19
2023-03-29T15:35:25.900Z,100677.16
2023-03-29T15:38:40.489Z,100669.94
2023-03-29T15:41:50.057Z,100669.09
2023-03-29T15:44:56.534Z,100672.25
2023-03-29T15:48:01.994Z,100652.97
2023-03-29T15:51:06.423Z,100650.34
2023-03-29T15:54:09.305Z,100661.13
2023-03-29T15:57:13.972Z,100658.22
2023-03-29T16:00:16.939Z,100649.72
2023-03-29T16:03:19.435Z,100656.69
2023-03-29T16:06:23.969Z,100656.34
2023-03-29T16:09:27.457Z,100645.66
2023-03-29T16:12:29.761Z,100647.28
2023-03-29T16:15:33.732Z,100645.69
2023-03-29T16:18:36.334Z,100647.47
2023-03-29T16:21:38.776Z,100645.38
2023-03-29T16:24:41.347Z,100651.97
2023-03-29T16:27:44.236Z,100639.91
2023-03-29T16:30:46.800Z,100638.66
2023-03-29T16:33:49.371Z,100631.41
2023-03-29T16:36:53.159Z,100631.84
2023-03-29T16:39:56.953Z,100630.66
2023-03-29T16:43:00.098Z,100631.84
2023-03-29T16:46:02.856Z,100621.41
2023-03-29T16:49:07.920Z,100619.34
2023-03-29T16:52:10.404Z,100631.66
2023-03-29T16:55:13.688Z,100641.31
2023-03-29T16:58:16.256Z,100637.41
2023-03-29T17:01:19.357Z,100640.03
2023-03-29T17:04:21.821Z,100637.69
2023-03-29T17:07:24.134Z,100625.72
2023-03-29T17:10:26.399Z,100631.22
2023-03-29T17:13:29.083Z,100636.16
2023-03-29T17:16:31.465Z,100627.34
2023-03-29T17:19:36.752Z,100629.25
2023-03-29T17:22:40.023Z,100638.94
2023-03-29T17:25:43.519Z,100625.00
2023-03-29T17:28:45.859Z,100625.66
2023-03-29T17:31:48.357Z,100636.19
2023-03-29T17:34:51.477Z,100644.78
2023-03-29T17:37:54.808Z,100636.63
2023-03-29T17:40:57.175Z,100648.88
2023-03-29T17:43:59.813Z,100652.31
2023-03-29T17:47:02.270Z,100652.75
2023-03-29T17:50:05.673Z,100655.22
2023-03-29T17:53:07.939Z,100660.72
2023-03-29T17:56:10.238Z,100652.94
2023-03-29T17:59:12.530Z,100652.97
2023-03-29T18:02:25.434Z,100649.25
2023-03-29T18:05:28.090Z,100667.25
2023-03-29T18:08:31.321Z,100659.13
2023-03-29T18:11:33.728Z,100670.97
2023-03-29T18:14:36.334Z,100659.75
2023-03-29T18:17:41.614Z,100671.22
2023-03-29T18:20:45.600Z,100673.88
2023-03-29T18:23:48.991Z,100674.28
2023-03-29T18:26:51.403Z,100671.03
2023-03-29T18:29:55.474Z,100676.75
2023-03-29T18:32:57.949Z,100686.59
2023-03-29T18:36:01.308Z,100677.19
2023-03-29T18:39:07.287Z,100668.19
2023-03-29T18:42:13.731Z,100685.75
2023-03-29T18:45:18.198Z,100676.94
2023-03-29T18:48:20.467Z,100678.53
2023-03-29T18:51:23.729Z,100692.66
2023-03-29T18:54:26.076Z,100687.09
2023-03-29T18:57:30.987Z,100675.94
2023-03-29T19:00:33.430Z,100684.13
2023-03-29T19:03:36.402Z,100680.66
2023-03-29T19:06:39.134Z,100678.19
2023-03-29T19:09:41.872Z,100694.31
2023-03-29T19:12:44.636Z,100676.75
2023-03-29T19:15:47.786Z,100688.22
2023-03-29T19:18:50.227Z,100680.44
2023-03-29T19:21:53.391Z,100691.09
2023-03-29T19:24:55.664Z,100672.69
2023-03-29T19:27:58.076Z,100681.91
2023-03-29T19:31:01.639Z,100687.00
2023-03-29T19:34:07.138Z,100680.66
2023-03-29T19:37:09.560Z,100683.31
2023-03-29T19:40:12.280Z,100694.56
2023-03-29T19:43:16.896Z,100697.66
2023-03-29T19:46:20.416Z,100694.34
2023-03-29T19:49:22.891Z,100691.09
2023-03-29T19:52:25.681Z,100699.28
2023-03-29T19:55:28.627Z,100682.09
2023-03-29T19:58:31.509Z,100683.50
2023-03-29T20:01:33.950Z,100686.81
2023-03-29T20:04:37.978Z,100684.56
2023-03-29T20:07:40.749Z,100681.47
2023-03-29T20:10:43.180Z,100681.47
2023-03-29T20:13:45.552Z,100686.81
2023-03-29T20:16:49.936Z,100682.06
2023-03-29T20:19:54.028Z,100675.53
2023-03-29T20:23:04.647Z,100666.13
2023-03-29T20:26:08.623Z,100678.00
2023-03-29T20:29:10.996Z,100660.41
2023-03-29T20:32:13.351Z,100660.81
2023-03-29T20:35:15.803Z,100658.56
2023-03-29T20:38:18.173Z,100652.00
2023-03-29T20:41:20.756Z,100671.69
2023-03-29T20:44:28.417Z,100655.28
2023-03-29T20:47:30.850Z,100664.47
2023-03-29T20:50:33.623Z,100668.59
2023-03-29T20:53:35.873Z,100658.97
2023-03-29T20:56:40.023Z,100665.31
2023-03-29T20:59:43.919Z,100669.00
2023-03-29T21:02:47.164Z,100661.59
2023-03-29T21:05:54.205Z,100672.88
2023-03-29T21:08:57.635Z,100662.66
2023-03-29T21:12:00.238Z,100658.38
2023-03-29T21:15:03.893Z,100656.31
2023-03-29T21:18:06.945Z,100653.03
2023-03-29T21:21:11.101Z,100653.44
2023-03-29T21:24:13.865Z,100650.16
2023-03-29T21:27:16.419Z,100644.63
2023-03-29T21:30:18.808Z,100653.44
2023-03-29T21:33:21.172Z,100648.13
2023-03-29T21:36:24.264Z,100653.66
2023-03-29T21:39:27.236Z,100638.91
2023-03-29T21:42:29.660Z,100638.72
2023-03-29T21:45:32.644Z,100650.78
2023-03-29T21:48:35.432Z,100646.28
2023-03-29T21:51:37.877Z,100644.63
2023-03-29T21:54:40.376Z,100636.28
2023-03-29T21:57:42.946Z,100625.63
2023-03-29T22:00:46.711Z,100633.38
2023-03-29T22:03:49.024Z,100630.94
2023-03-29T22:06:51.525Z,100623.56
2023-03-29T22:09:54.807Z,100630.13
2023-03-29T22:12:57.133Z,100633.41
2023-03-29T22:16:01.216Z,100640.34
2023-03-29T22:19:04.566Z,100648.53
2023-03-29T22:22:13.707Z,100636.25
2023-03-29T22:25:17.779Z,100637.06
2023-03-29T22:28:20.092Z,100637.91
2023-03-29T22:31:23.800Z,100649.53
2023-03-29T22:34:26.743Z,100639.94
2023-03-29T22:37:29.268Z,100654.25
2023-03-29T22:40:33.433Z,100639.94
2023-03-29T22:43:37.069Z,100641.97
2023-03-29T22:46:39.387Z,100648.94
2023-03-29T22:49:41.928Z,100636.66
2023-03-29T22:52:44.248Z,100665.91
2023-03-29T22:55:46.655Z,100670.19
2023-03-29T22:58:49.224Z,100662.59
2023-03-29T23:01:52.136Z,100647.28
2023-03-29T23:04:54.503Z,100645.44
2023-03-29T23:07:56.837Z,100642.81
2023-03-29T23:10:59.654Z,100642.38
2023-03-29T23:14:04.255Z,100653.84
2023-03-29T23:17:07.646Z,100643.56
2023-03-29T23:20:11.390Z,100652.56
2023-03-29T23:23:13.924Z,100642.13
2023-03-29T23:26:16.672Z,100648.50
2023-03-29T23:29:18.924Z,100641.03
2023-03-29T23:32:21.214Z,100639.25
2023-03-29T23:35:24.179Z,100646.59
2023-03-29T23:38:26.484Z,100651.47
2023-03-29T23:41:30.818Z,100641.91
2023-03-29T23:44:33.239Z,100640.09
2023-03-29T23:47:36.813Z,100641.91
2023-03-29T23:50:39.225Z,100644.19
2023-03-29T23:53:41.721Z,100637.41
2023-03-29T23:56:44.241Z,100632.69
2023-03-29T23:59:46.550Z,100644.56
